Berlin, New Hampshire
Current Conditions -  °F | °C
As of 10:40 AM on Friday 24 Oct 2014 (Local Time) from KBML Reporting Station
Haze Haze  
Wind Chill: 42°   Ceiling: 800
Heat Index: 46°   Visibility: 5mi
Dew Point: 43°   Wind: 7mph
Humidity: 89%   Direction: 340°NNW
Pressure: 29.75"   Gusts: NA
Location:  44.47°N, 71.18°W
Report Text: KBML 241440Z AUTO 34006KT 5SM BR BKN008 BKN012 OVC019 08/06 A2975 RMK AO2 RAE08 P0000 T00780061
Loading
Personal Weather Stations






























Interactive Weather Map
Tropical Storm Tracking
New forecast layout! Learn more

10-Day Weather Forecast

Advertisements
Track Severe Weather on mobile